• location
  • image
mod_vvisit_countermod_vvisit_countermod_vvisit_countermod_vvisit_countermod_vvisit_countermod_vvisit_counter
mod_vvisit_counterToday637
mod_vvisit_counterYesterday870
mod_vvisit_counterThis week4627
mod_vvisit_counterLast week5210
mod_vvisit_counterThis month12363
mod_vvisit_counterLast month22413
mod_vvisit_counterAll days843004

We have: 63 guests, 2 bots online
Your IP: 54.82.78.213
 , 
Today: Feb 17, 2018
Airport / Company

Company

Municipal company Siauliu oro uostas.

In November 2003, under the decision of Siauliai City Municipality Council, municipal company Siauliu Oro Uostas was set up. Under the resolution of the Lithuanian Government, the company was granted the right to serve civil transport in Siauliai Military Aerodrome.

The company is a limited liability public entity.

The main objective  – to provide public passenger and cargo air transportation services.

The company’s main activities include airport operations and air transport services.

Currently, 21 employees work for the company.

Organisation chart of the company is given below:

 

Today

Saturday, 17 February 2018

Aviation Weather Forecast

[source: ADDS]
METAR
EYSA 172120Z 32010KT 9999 -SN OVC022 M04/M05 Q1020 R14L/29//95 R14R/29//95 WHT NOSIG =
TAF
TAF EYSA 172000Z 1721/1806 34010KT 5000 BR SCT006 BKN015 TEMPO 1721/1724 BKN006 TEMPO 1800/1806 3000 SN BKN006 =
SR / SS: 05:44 / 15:39 UTC (EYSA 2018-02-17)

Search

Who's Online

We have 65 guests online

tic logo en